Time,TemperatureF,DewpointF,PressureIn,WindDirection,WindDirectionDegrees,WindSpeedMPH,WindSpeedGustMPH,Humidity,HourlyPrecipIn,Conditions,Clouds,dailyrainin,SolarRadiationWatts/m^2,SoftwareType,DateUTC
2013-06-03 00:13:00,62.0,57.0,-100.00,NNW,338,5.0,12.0,84,0.00,,,0.00,0.000000,,2013-06-03 04:13:00,
2013-06-03 00:23:00,62.0,57.0,-100.00,NNW,338,5.0,12.0,84,0.00,,,0.00,0.000000,,2013-06-03 04:23:00,
2013-06-03 00:33:00,62.0,57.0,-100.00,NNW,338,5.0,12.0,84,0.00,,,0.00,0.000000,,2013-06-03 04:33:00,
2013-06-03 00:42:00,62.0,57.0,-100.00,NNW,338,5.0,12.0,84,0.00,,,0.00,0.000000,,2013-06-03 04:42:00,
2013-06-03 01:13:00,61.0,56.0,-100.00,NNW,345,4.0,9.0,85,0.00,,,0.00,0.000000,,2013-06-03 05:13:00,
2013-06-03 01:22:00,61.0,56.0,-100.00,NNW,345,4.0,9.0,85,0.00,,,0.00,0.000000,,2013-06-03 05:22:00,
2013-06-03 01:32:00,61.0,56.0,-100.00,NNW,345,4.0,9.0,85,0.00,,,0.00,0.000000,,2013-06-03 05:32:00,
2013-06-03 01:43:00,61.0,56.0,-100.00,NNW,345,4.0,9.0,85,0.00,,,0.00,0.000000,,2013-06-03 05:43:00,
2013-06-03 02:12:00,59.0,56.0,-100.00,NW,316,4.0,8.0,89,0.00,,,0.00,0.000000,,2013-06-03 06:12:00,
2013-06-03 02:22:00,59.0,56.0,-100.00,NW,316,4.0,8.0,89,0.00,,,0.00,0.000000,,2013-06-03 06:22:00,
2013-06-03 02:32:00,59.0,56.0,-100.00,NW,316,4.0,8.0,89,0.00,,,0.00,0.000000,,2013-06-03 06:32:00,
2013-06-03 02:42:00,59.0,56.0,-100.00,NW,316,4.0,8.0,89,0.00,,,0.00,0.000000,,2013-06-03 06:42:00,
2013-06-03 03:12:00,60.0,55.0,-100.00,North,360,4.0,10.0,83,0.00,,,0.00,0.000000,,2013-06-03 07:12:00,
2013-06-03 03:22:00,60.0,55.0,-100.00,North,360,4.0,10.0,83,0.00,,,0.00,0.000000,,2013-06-03 07:22:00,
2013-06-03 03:32:00,60.0,55.0,-100.00,North,360,4.0,10.0,83,0.00,,,0.00,0.000000,,2013-06-03 07:32:00,
2013-06-03 03:42:00,60.0,55.0,-100.00,North,360,4.0,10.0,83,0.00,,,0.00,0.000000,,2013-06-03 07:42:00,
2013-06-03 04:12:00,59.0,53.0,-100.00,NNE,25,6.0,9.0,80,0.00,,,-99.99,0.000000,,2013-06-03 08:12:00,
2013-06-03 04:22:00,59.0,53.0,-100.00,NNE,25,6.0,9.0,80,0.00,,,-99.99,0.000000,,2013-06-03 08:22:00,
2013-06-03 04:32:00,59.0,53.0,-100.00,NNE,25,6.0,9.0,80,0.00,,,-99.99,0.000000,,2013-06-03 08:32:00,
2013-06-03 04:42:00,59.0,53.0,-100.00,NNE,25,6.0,9.0,80,0.00,,,-99.99,0.000000,,2013-06-03 08:42:00,
2013-06-03 05:12:00,58.0,52.0,-100.00,NNE,21,5.0,10.0,81,0.00,,,0.00,0.000000,,2013-06-03 09:12:00,
2013-06-03 05:22:00,58.0,52.0,-100.00,NNE,21,5.0,10.0,81,0.00,,,0.00,0.000000,,2013-06-03 09:22:00,
2013-06-03 05:33:00,58.0,52.0,-100.00,NNE,21,5.0,10.0,81,0.00,,,0.00,0.000000,,2013-06-03 09:33:00,
2013-06-03 05:43:00,58.0,52.0,-100.00,NNE,21,5.0,10.0,81,0.00,,,0.00,0.000000,,2013-06-03 09:43:00,
2013-06-03 06:13:00,57.0,51.0,-100.00,NNE,29,7.0,12.0,79,0.00,,,0.00,0.000000,,2013-06-03 10:13:00,
2013-06-03 06:22:00,57.0,51.0,-100.00,NNE,29,7.0,12.0,79,0.00,,,0.00,0.000000,,2013-06-03 10:22:00,
2013-06-03 06:33:00,57.0,51.0,-100.00,NNE,29,7.0,12.0,79,0.00,,,0.00,0.000000,,2013-06-03 10:33:00,
2013-06-03 06:42:00,57.0,51.0,-100.00,NNE,29,7.0,12.0,79,0.00,,,0.00,0.000000,,2013-06-03 10:42:00,
2013-06-03 07:12:00,55.0,50.0,-100.00,North,358,3.0,10.0,83,0.00,,,0.00,6.000000,,2013-06-03 11:12:00,
2013-06-03 07:22:00,55.0,50.0,-100.00,North,358,3.0,10.0,83,0.00,,,0.00,6.000000,,2013-06-03 11:22:00,
2013-06-03 07:32:00,55.0,50.0,-100.00,North,358,3.0,10.0,83,0.00,,,0.00,6.000000,,2013-06-03 11:32:00,
2013-06-03 07:42:00,55.0,50.0,-100.00,North,358,3.0,10.0,83,0.00,,,0.00,6.000000,,2013-06-03 11:42:00,
2013-06-03 08:12:00,57.0,50.0,-100.00,NNE,32,4.0,7.0,78,0.00,,,0.00,94.000000,,2013-06-03 12:12:00,
2013-06-03 08:22:00,57.0,50.0,-100.00,NNE,32,4.0,7.0,78,0.00,,,0.00,94.000000,,2013-06-03 12:22:00,
2013-06-03 08:32:00,57.0,50.0,-100.00,NNE,32,4.0,7.0,78,0.00,,,0.00,94.000000,,2013-06-03 12:32:00,
2013-06-03 08:42:00,57.0,50.0,-100.00,NNE,32,4.0,7.0,78,0.00,,,0.00,94.000000,,2013-06-03 12:42:00,
2013-06-03 09:12:00,60.0,51.0,-100.00,NNE,13,4.0,8.0,72,0.00,,,0.00,304.000000,,2013-06-03 13:12:00,
2013-06-03 09:22:00,60.0,51.0,-100.00,NNE,13,4.0,8.0,72,0.00,,,0.00,304.000000,,2013-06-03 13:22:00,
2013-06-03 09:32:00,60.0,51.0,-100.00,NNE,13,4.0,8.0,72,0.00,,,0.00,304.000000,,2013-06-03 13:32:00,
2013-06-03 09:43:00,60.0,51.0,-100.00,NNE,13,4.0,8.0,72,0.00,,,0.00,304.000000,,2013-06-03 13:43:00,
2013-06-03 10:13:00,63.0,51.0,-100.00,NW,323,4.0,10.0,66,0.00,,,0.00,543.000000,,2013-06-03 14:13:00,
2013-06-03 10:22:00,63.0,51.0,-100.00,NW,323,4.0,10.0,66,0.00,,,0.00,543.000000,,2013-06-03 14:22:00,
2013-06-03 10:32:00,63.0,51.0,-100.00,NW,323,4.0,10.0,66,0.00,,,0.00,543.000000,,2013-06-03 14:32:00,
2013-06-03 10:42:00,63.0,51.0,-100.00,NW,323,4.0,10.0,66,0.00,,,0.00,543.000000,,2013-06-03 14:42:00,
2013-06-03 11:12:00,65.0,51.0,-100.00,NW,326,7.0,11.0,60,0.00,,,0.00,722.000000,,2013-06-03 15:12:00,
2013-06-03 11:22:00,65.0,51.0,-100.00,NW,326,7.0,11.0,60,0.00,,,0.00,722.000000,,2013-06-03 15:22:00,
2013-06-03 11:33:00,65.0,51.0,-100.00,NW,326,7.0,11.0,60,0.00,,,0.00,722.000000,,2013-06-03 15:33:00,
2013-06-03 11:43:00,65.0,51.0,-100.00,NW,326,7.0,11.0,60,0.00,,,0.00,722.000000,,2013-06-03 15:43:00,
2013-06-03 12:13:00,64.0,50.0,-100.00,NW,322,7.0,14.0,60,0.00,,,0.00,610.000000,,2013-06-03 16:13:00,
2013-06-03 12:23:00,64.0,50.0,-100.00,NW,322,7.0,14.0,60,0.00,,,0.00,610.000000,,2013-06-03 16:23:00,
2013-06-03 12:33:00,64.0,50.0,-100.00,NW,322,7.0,14.0,60,0.00,,,0.00,610.000000,,2013-06-03 16:33:00,
2013-06-03 12:42:00,64.0,50.0,-100.00,NW,322,7.0,14.0,60,0.00,,,0.00,610.000000,,2013-06-03 16:42:00,
2013-06-03 13:12:00,67.0,52.0,-100.00,NNW,329,7.0,14.0,58,0.00,,,0.00,787.000000,,2013-06-03 17:12:00,
2013-06-03 13:22:00,67.0,52.0,-100.00,NNW,329,7.0,14.0,58,0.00,,,0.00,787.000000,,2013-06-03 17:22:00,
2013-06-03 13:33:00,67.0,52.0,-100.00,NNW,329,7.0,14.0,58,0.00,,,0.00,787.000000,,2013-06-03 17:33:00,
2013-06-03 13:42:00,67.0,52.0,-100.00,NNW,329,7.0,14.0,58,0.00,,,0.00,787.000000,,2013-06-03 17:42:00,
2013-06-03 14:12:00,67.0,50.0,-100.00,NW,319,8.0,18.0,55,0.00,,,0.00,1022.000000,,2013-06-03 18:12:00,
2013-06-03 14:22:00,67.0,50.0,-100.00,NW,319,8.0,18.0,55,0.00,,,0.00,1022.000000,,2013-06-03 18:22:00,
2013-06-03 14:32:00,67.0,50.0,-100.00,NW,319,8.0,18.0,55,0.00,,,0.00,1022.000000,,2013-06-03 18:32:00,
2013-06-03 14:43:00,67.0,50.0,-100.00,NW,319,8.0,18.0,55,0.00,,,0.00,1022.000000,,2013-06-03 18:43:00,
2013-06-03 15:12:00,68.0,50.0,-100.00,WNW,301,7.0,14.0,52,0.00,,,0.00,975.000000,,2013-06-03 19:12:00,
2013-06-03 15:23:00,68.0,50.0,-100.00,WNW,301,7.0,14.0,52,0.00,,,0.00,975.000000,,2013-06-03 19:23:00,
2013-06-03 15:33:00,68.0,50.0,-100.00,WNW,301,7.0,14.0,52,0.00,,,0.00,975.000000,,2013-06-03 19:33:00,
2013-06-03 15:42:00,68.0,50.0,-100.00,WNW,301,7.0,14.0,52,0.00,,,0.00,975.000000,,2013-06-03 19:42:00,
2013-06-03 16:13:00,67.0,49.0,-100.00,NNW,330,5.0,12.0,53,0.00,,,0.00,715.000000,,2013-06-03 20:13:00,
2013-06-03 16:22:00,67.0,49.0,-100.00,NNW,330,5.0,12.0,53,0.00,,,0.00,715.000000,,2013-06-03 20:22:00,
2013-06-03 16:33:00,67.0,49.0,-100.00,NNW,330,5.0,12.0,53,0.00,,,0.00,715.000000,,2013-06-03 20:33:00,
2013-06-03 16:43:00,67.0,49.0,-100.00,NNW,330,5.0,12.0,53,0.00,,,0.00,715.000000,,2013-06-03 20:43:00,
2013-06-03 17:12:00,69.0,51.0,-100.00,NNW,329,5.0,11.0,53,0.00,,,0.00,713.000000,,2013-06-03 21:12:00,
2013-06-03 17:22:00,69.0,51.0,-100.00,NNW,329,5.0,11.0,53,0.00,,,0.00,713.000000,,2013-06-03 21:22:00,
2013-06-03 17:33:00,69.0,51.0,-100.00,NNW,329,5.0,11.0,53,0.00,,,0.00,713.000000,,2013-06-03 21:33:00,
2013-06-03 17:43:00,69.0,51.0,-100.00,NNW,329,5.0,11.0,53,0.00,,,0.00,713.000000,,2013-06-03 21:43:00,
2013-06-03 18:13:00,70.0,51.0,-100.00,NNW,340,4.0,10.0,51,0.00,,,0.00,511.000000,,2013-06-03 22:13:00,
2013-06-03 18:22:00,70.0,51.0,-100.00,NNW,340,4.0,10.0,51,0.00,,,0.00,511.000000,,2013-06-03 22:22:00,
2013-06-03 18:33:00,70.0,51.0,-100.00,NNW,340,4.0,10.0,51,0.00,,,0.00,511.000000,,2013-06-03 22:33:00,
2013-06-03 18:42:00,70.0,51.0,-100.00,NNW,340,4.0,10.0,51,0.00,,,0.00,511.000000,,2013-06-03 22:42:00,
2013-06-03 19:12:00,70.0,50.0,-100.00,NNW,340,5.0,16.0,50,0.00,,,0.00,421.000000,,2013-06-03 23:12:00,
2013-06-03 19:23:00,70.0,50.0,-100.00,NNW,340,5.0,16.0,50,0.00,,,0.00,421.000000,,2013-06-03 23:23:00,
2013-06-03 19:32:00,70.0,50.0,-100.00,NNW,340,5.0,16.0,50,0.00,,,0.00,421.000000,,2013-06-03 23:32:00,
2013-06-03 19:42:00,70.0,50.0,-100.00,NNW,340,5.0,16.0,50,0.00,,,0.00,421.000000,,2013-06-03 23:42:00,
2013-06-03 20:12:00,66.0,50.0,-100.00,North,359,4.0,9.0,56,0.00,,,0.00,234.000000,,2013-06-04 00:12:00,
2013-06-03 20:22:00,66.0,50.0,-100.00,North,359,4.0,9.0,56,0.00,,,0.00,234.000000,,2013-06-04 00:22:00,
2013-06-03 20:32:00,66.0,50.0,-100.00,North,359,4.0,9.0,56,0.00,,,0.00,234.000000,,2013-06-04 00:32:00,
2013-06-03 20:42:00,66.0,50.0,-100.00,North,359,4.0,9.0,56,0.00,,,0.00,234.000000,,2013-06-04 00:42:00,
2013-06-03 21:12:00,64.0,51.0,-100.00,NW,320,3.0,6.0,63,0.00,,,0.00,46.000000,,2013-06-04 01:12:00,
2013-06-03 21:22:00,64.0,51.0,-100.00,NW,320,3.0,6.0,63,0.00,,,0.00,46.000000,,2013-06-04 01:22:00,
2013-06-03 21:32:00,64.0,51.0,-100.00,NW,320,3.0,6.0,63,0.00,,,0.00,46.000000,,2013-06-04 01:32:00,
2013-06-03 21:42:00,64.0,51.0,-100.00,NW,320,3.0,6.0,63,0.00,,,0.00,46.000000,,2013-06-04 01:42:00,
2013-06-03 22:12:00,61.0,51.0,-100.00,North,351,3.0,4.0,69,0.00,,,0.00,4.000000,,2013-06-04 02:12:00,
2013-06-03 22:22:00,61.0,51.0,-100.00,North,351,3.0,4.0,69,0.00,,,0.00,4.000000,,2013-06-04 02:22:00,
2013-06-03 22:32:00,61.0,51.0,-100.00,North,351,3.0,4.0,69,0.00,,,0.00,4.000000,,2013-06-04 02:32:00,
2013-06-03 22:42:00,61.0,51.0,-100.00,North,351,3.0,4.0,69,0.00,,,0.00,4.000000,,2013-06-04 02:42:00,
2013-06-03 23:12:00,55.0,52.0,-100.00,WNW,297,0.0,3.0,88,0.00,,,0.00,0.000000,,2013-06-04 03:12:00,
2013-06-03 23:22:00,55.0,52.0,-100.00,WNW,297,0.0,3.0,88,0.00,,,0.00,0.000000,,2013-06-04 03:22:00,
2013-06-03 23:33:00,55.0,52.0,-100.00,WNW,297,0.0,3.0,88,0.00,,,0.00,0.000000,,2013-06-04 03:33:00,
2013-06-03 23:43:00,55.0,52.0,-100.00,WNW,297,0.0,3.0,88,0.00,,,0.00,0.000000,,2013-06-04 03:43:00,